createdAt,value
2018-04-13T00:00:56.070Z,83.79
2018-04-13T00:03:23.463Z,84.91
2018-04-13T00:05:50.851Z,85.42
2018-04-13T00:08:18.230Z,85.15
2018-04-13T00:10:45.675Z,85.36
2018-04-13T00:13:13.067Z,85.14
2018-04-13T00:15:40.463Z,85.25
2018-04-13T00:18:07.850Z,85.65
2018-04-13T00:20:35.235Z,85.60
2018-04-13T00:23:02.626Z,86.32
2018-04-13T00:25:30.020Z,87.31
2018-04-13T00:27:57.398Z,87.64
2018-04-13T00:30:24.788Z,87.96
2018-04-13T00:32:52.190Z,87.46
2018-04-13T00:35:19.579Z,87.10
2018-04-13T00:37:47.091Z,86.84
2018-04-13T00:40:14.479Z,86.60
2018-04-13T00:42:41.863Z,86.66
2018-04-13T00:45:09.252Z,86.70
2018-04-13T00:47:36.633Z,86.63
2018-04-13T00:50:04.187Z,86.79
2018-04-13T00:52:31.559Z,87.17
2018-04-13T00:54:58.943Z,87.47
2018-04-13T00:57:26.338Z,87.89
2018-04-13T00:59:53.720Z,88.21
2018-04-13T01:02:21.111Z,88.10
2018-04-13T01:04:48.491Z,87.91
2018-04-13T01:07:15.993Z,87.92
2018-04-13T01:09:43.364Z,88.51
2018-04-13T01:12:10.804Z,88.62
2018-04-13T01:14:38.275Z,88.49
2018-04-13T01:17:05.659Z,88.61
2018-04-13T01:19:33.055Z,88.40
2018-04-13T01:22:00.443Z,88.27
2018-04-13T01:24:27.830Z,88.46
2018-04-13T01:26:55.218Z,88.44
2018-04-13T01:29:22.606Z,88.91
2018-04-13T01:31:49.992Z,89.20
2018-04-13T01:34:17.379Z,89.27
2018-04-13T01:36:44.771Z,89.06
2018-04-13T01:39:12.157Z,88.46
2018-04-13T01:41:39.550Z,88.85
2018-04-13T01:44:06.922Z,88.72
2018-04-13T01:46:34.319Z,88.71
2018-04-13T01:49:01.695Z,88.31
2018-04-13T01:51:29.096Z,88.39
2018-04-13T01:53:56.481Z,88.64
2018-04-13T01:56:23.855Z,89.84
2018-04-13T01:58:51.250Z,89.55
2018-04-13T02:01:18.631Z,89.64
2018-04-13T02:03:46.015Z,90.10
2018-04-13T02:06:13.391Z,90.25
2018-04-13T02:08:40.782Z,90.03
2018-04-13T02:11:08.164Z,89.68
2018-04-13T02:13:35.554Z,89.25
2018-04-13T02:16:02.938Z,89.13
2018-04-13T02:18:30.318Z,89.42
2018-04-13T02:20:57.707Z,89.84
2018-04-13T02:23:25.094Z,90.59
2018-04-13T02:25:52.579Z,90.54
2018-04-13T02:28:19.944Z,90.93
2018-04-13T02:30:47.339Z,90.87
2018-04-13T02:33:14.723Z,91.64
2018-04-13T02:35:42.119Z,92.44
2018-04-13T02:38:09.515Z,92.29
2018-04-13T02:40:36.902Z,91.75
2018-04-13T02:43:04.287Z,91.32
2018-04-13T02:45:31.674Z,90.97
2018-04-13T02:47:59.064Z,91.80
2018-04-13T02:50:26.462Z,92.09
2018-04-13T02:52:54.166Z,91.27
2018-04-13T02:55:21.561Z,90.62
2018-04-13T02:57:48.951Z,90.44
2018-04-13T03:00:16.349Z,90.53
2018-04-13T03:02:43.723Z,90.76
2018-04-13T03:05:11.115Z,91.07
2018-04-13T03:07:38.514Z,91.33
2018-04-13T03:10:05.890Z,91.48
2018-04-13T03:12:33.267Z,91.56
2018-04-13T03:15:00.647Z,91.70
2018-04-13T03:17:28.043Z,92.20
2018-04-13T03:19:55.418Z,91.92
2018-04-13T03:22:22.811Z,91.59
2018-04-13T03:24:50.191Z,91.95
2018-04-13T03:27:17.583Z,92.11
2018-04-13T03:29:44.961Z,91.90
2018-04-13T03:32:12.368Z,91.99
2018-04-13T03:34:39.748Z,92.17
2018-04-13T03:37:07.135Z,92.33
2018-04-13T03:39:34.519Z,92.35
2018-04-13T03:42:01.902Z,91.66
2018-04-13T03:44:29.286Z,91.66
2018-04-13T03:46:56.666Z,91.57
2018-04-13T03:49:24.047Z,91.64
2018-04-13T03:51:51.867Z,91.82
2018-04-13T03:54:19.262Z,91.87
2018-04-13T03:56:46.637Z,92.01
2018-04-13T03:59:14.029Z,91.96
2018-04-13T04:01:41.412Z,91.99
2018-04-13T04:04:08.788Z,92.33
2018-04-13T04:06:36.182Z,92.54
2018-04-13T04:09:03.562Z,92.35
2018-04-13T04:11:30.951Z,92.43
2018-04-13T04:13:58.327Z,92.69
2018-04-13T04:16:25.755Z,92.97
2018-04-13T04:18:53.096Z,93.27
2018-04-13T04:21:32.149Z,93.74
2018-04-13T04:24:11.366Z,93.73
2018-04-13T04:26:50.659Z,93.74
2018-04-13T04:29:18.035Z,93.75
2018-04-13T04:31:45.435Z,94.58
2018-04-13T04:34:12.820Z,94.30
2018-04-13T04:36:40.190Z,94.17
2018-04-13T04:39:07.595Z,94.26
2018-04-13T04:41:34.970Z,94.38
2018-04-13T04:44:02.367Z,94.49
2018-04-13T04:46:29.743Z,94.52
2018-04-13T04:48:57.128Z,94.43
2018-04-13T04:51:24.506Z,94.33
2018-04-13T04:53:51.915Z,94.35
2018-04-13T04:56:19.291Z,94.23
2018-04-13T04:58:46.675Z,94.19
2018-04-13T05:01:14.063Z,94.16
2018-04-13T05:03:41.446Z,94.06
2018-04-13T05:06:08.826Z,93.89
2018-04-13T05:08:36.215Z,93.92
2018-04-13T05:11:03.609Z,94.28
2018-04-13T05:13:30.987Z,94.58
2018-04-13T05:15:58.379Z,94.40
2018-04-13T05:18:25.764Z,94.46
2018-04-13T05:20:53.151Z,94.47
2018-04-13T05:23:20.542Z,94.39
2018-04-13T05:25:47.947Z,94.36
2018-04-13T05:28:15.335Z,94.92
2018-04-13T05:30:42.727Z,95.19
2018-04-13T05:33:10.122Z,95.61
2018-04-13T05:35:37.511Z,95.92
2018-04-13T05:38:04.893Z,95.55
2018-04-13T05:40:32.282Z,95.25
2018-04-13T05:42:59.659Z,95.15
2018-04-13T05:45:27.052Z,94.81
2018-04-13T05:47:54.443Z,94.28
2018-04-13T05:50:21.830Z,93.92
2018-04-13T05:52:49.222Z,93.79
2018-04-13T05:55:16.820Z,93.83
2018-04-13T05:57:44.203Z,93.90
2018-04-13T06:00:11.643Z,93.86
2018-04-13T06:02:38.979Z,93.84
2018-04-13T06:05:06.367Z,93.65
2018-04-13T06:07:33.751Z,93.62
2018-04-13T06:10:01.139Z,93.48
2018-04-13T06:12:28.534Z,93.33
2018-04-13T06:14:55.911Z,93.10
2018-04-13T06:17:23.306Z,93.03
2018-04-13T06:19:50.691Z,93.16
2018-04-13T06:22:18.079Z,92.89
2018-04-13T06:24:45.459Z,92.76
2018-04-13T06:27:12.841Z,92.32
2018-04-13T06:29:40.235Z,92.18
2018-04-13T06:32:07.630Z,92.59
2018-04-13T06:34:35.023Z,92.62
2018-04-13T06:37:02.408Z,92.79
2018-04-13T06:39:29.804Z,92.92
2018-04-13T06:41:57.182Z,92.58
2018-04-13T06:44:24.571Z,92.19
2018-04-13T06:46:51.970Z,91.88
2018-04-13T06:49:19.355Z,91.44
2018-04-13T06:51:46.739Z,91.34
2018-04-13T06:54:14.272Z,91.08
2018-04-13T06:56:41.694Z,90.66
2018-04-13T06:59:09.058Z,89.73
2018-04-13T07:01:36.452Z,89.62
2018-04-13T07:04:03.838Z,89.04
2018-04-13T07:06:31.219Z,88.28
2018-04-13T07:08:58.604Z,87.66
2018-04-13T07:11:25.993Z,87.37
2018-04-13T07:13:53.387Z,86.30
2018-04-13T07:16:20.767Z,86.31
2018-04-13T07:18:48.188Z,86.25
2018-04-13T07:21:15.564Z,86.29
2018-04-13T07:23:42.946Z,86.57
2018-04-13T07:26:10.338Z,86.07
2018-04-13T07:28:37.731Z,85.43
2018-04-13T07:31:05.126Z,85.13
2018-04-13T07:33:32.512Z,84.07
2018-04-13T07:36:00.223Z,83.70
2018-04-13T07:38:27.608Z,83.45
2018-04-13T07:40:54.986Z,83.42
2018-04-13T07:43:22.370Z,83.06
2018-04-13T07:45:50.005Z,82.98
2018-04-13T07:48:17.794Z,82.90
2018-04-13T07:50:44.528Z,82.95
2018-04-13T07:53:11.922Z,82.81
2018-04-13T07:55:39.304Z,82.30
2018-04-13T07:58:06.734Z,81.78
2018-04-13T08:00:34.680Z,81.71
2018-04-13T08:03:01.479Z,81.87
2018-04-13T08:05:28.867Z,81.86
2018-04-13T08:07:56.302Z,81.52
2018-04-13T08:10:23.687Z,81.43
2018-04-13T08:12:51.071Z,80.66
2018-04-13T08:15:18.464Z,81.17
2018-04-13T08:17:45.852Z,81.40
2018-04-13T08:20:13.235Z,81.14
2018-04-13T08:22:40.619Z,81.68
2018-04-13T08:25:07.998Z,81.84
2018-04-13T08:27:35.387Z,81.64
2018-04-13T08:30:02.855Z,82.09
2018-04-13T08:32:30.248Z,81.67
2018-04-13T08:34:57.632Z,82.05
2018-04-13T08:37:25.019Z,82.06
2018-04-13T08:39:52.405Z,81.52
2018-04-13T08:42:19.778Z,81.25
2018-04-13T08:44:47.167Z,81.47
2018-04-13T08:47:14.575Z,81.53
2018-04-13T08:49:41.927Z,82.34
2018-04-13T08:52:09.334Z,81.67
2018-04-13T08:54:36.691Z,81.53
2018-04-13T08:57:04.085Z,80.79
2018-04-13T08:59:31.470Z,79.55
2018-04-13T09:01:58.856Z,79.28
2018-04-13T09:04:26.234Z,79.66
2018-04-13T09:06:53.623Z,78.83
2018-04-13T09:09:21.023Z,78.77
2018-04-13T09:11:48.424Z,79.32
2018-04-13T09:14:15.809Z,79.14
2018-04-13T09:16:43.187Z,79.22
2018-04-13T09:19:10.579Z,79.33
2018-04-13T09:21:37.963Z,79.24
2018-04-13T09:24:05.351Z,79.04
2018-04-13T09:26:32.731Z,79.38
2018-04-13T09:29:00.129Z,80.26
2018-04-13T09:31:27.511Z,81.96
2018-04-13T09:33:54.904Z,83.00
2018-04-13T09:36:22.292Z,82.53
2018-04-13T09:38:49.679Z,80.82
2018-04-13T09:41:17.071Z,80.37
2018-04-13T09:43:44.480Z,80.28
2018-04-13T09:46:11.914Z,79.19
2018-04-13T09:48:39.254Z,78.85
2018-04-13T09:51:06.651Z,78.18
2018-04-13T09:53:34.039Z,77.23
2018-04-13T09:56:01.424Z,76.86
2018-04-13T09:58:28.810Z,77.31
2018-04-13T10:00:59.979Z,76.23
2018-04-13T10:03:27.367Z,76.29
2018-04-13T10:05:54.767Z,76.53
2018-04-13T10:08:22.147Z,76.56
2018-04-13T10:10:49.554Z,76.46
2018-04-13T10:13:16.959Z,75.97
2018-04-13T10:15:44.365Z,76.08
2018-04-13T10:18:11.726Z,76.02
2018-04-13T10:20:39.116Z,76.40
2018-04-13T10:23:06.495Z,76.19
2018-04-13T10:25:33.886Z,75.87
2018-04-13T10:28:01.271Z,75.08
2018-04-13T10:30:29.079Z,71.52
2018-04-13T10:32:56.505Z,71.42
2018-04-13T10:35:23.891Z,71.38
2018-04-13T10:37:51.281Z,71.44
2018-04-13T10:40:18.663Z,72.45
2018-04-13T10:42:46.046Z,74.01
2018-04-13T10:45:13.449Z,70.75
2018-04-13T10:47:40.839Z,69.76
2018-04-13T10:50:08.222Z,70.79
2018-04-13T10:52:35.622Z,70.09
2018-04-13T10:55:03.013Z,68.24
2018-04-13T10:57:30.399Z,68.10
2018-04-13T10:59:57.782Z,68.44
2018-04-13T11:02:25.175Z,68.87
2018-04-13T11:04:52.563Z,70.08
2018-04-13T11:07:19.955Z,69.81
2018-04-13T11:09:47.347Z,68.55
2018-04-13T11:12:16.467Z,68.59
2018-04-13T11:14:43.842Z,68.61
2018-04-13T11:17:11.290Z,68.28
2018-04-13T11:19:38.675Z,68.33
2018-04-13T11:22:06.059Z,66.10
2018-04-13T11:24:33.442Z,65.71
2018-04-13T11:27:00.827Z,65.78
2018-04-13T11:29:28.207Z,65.90
2018-04-13T11:31:55.595Z,66.54
2018-04-13T11:34:23.070Z,66.28
2018-04-13T11:36:50.496Z,66.06
2018-04-13T11:39:17.915Z,66.62
2018-04-13T11:41:45.294Z,67.73
2018-04-13T11:44:12.687Z,66.05
2018-04-13T11:46:40.071Z,65.71
2018-04-13T11:49:07.460Z,64.26
2018-04-13T11:51:34.843Z,63.43
2018-04-13T11:54:02.250Z,62.71
2018-04-13T11:56:29.630Z,65.31
2018-04-13T11:58:57.022Z,65.01
2018-04-13T12:01:24.415Z,64.11
2018-04-13T12:03:51.796Z,62.96
2018-04-13T12:06:19.183Z,61.72
2018-04-13T12:08:46.567Z,61.41
2018-04-13T12:11:13.947Z,61.75
2018-04-13T12:13:41.334Z,58.97
2018-04-13T12:16:08.727Z,60.24
2018-04-13T12:18:36.110Z,59.87
2018-04-13T12:21:03.534Z,59.33
2018-04-13T12:23:30.915Z,59.29
2018-04-13T12:25:58.295Z,59.16
2018-04-13T12:28:25.691Z,58.77
2018-04-13T12:30:53.115Z,61.43
2018-04-13T12:33:20.511Z,59.68
2018-04-13T12:35:47.895Z,61.00
2018-04-13T12:38:15.305Z,60.85
2018-04-13T12:40:42.666Z,60.20
2018-04-13T12:43:10.064Z,60.57
2018-04-13T12:45:37.455Z,61.56
2018-04-13T12:48:04.826Z,61.12
2018-04-13T12:50:32.228Z,61.53
2018-04-13T12:52:59.628Z,63.18
2018-04-13T12:55:27.003Z,61.05
2018-04-13T12:57:54.382Z,62.17
2018-04-13T13:00:22.027Z,59.71
2018-04-13T13:02:49.420Z,59.84
2018-04-13T13:05:16.795Z,59.25
2018-04-13T13:07:44.187Z,58.91
2018-04-13T13:10:11.570Z,60.41
2018-04-13T13:12:38.968Z,59.95
2018-04-13T13:15:06.435Z,61.43
2018-04-13T13:17:33.912Z,61.47
2018-04-13T13:20:01.299Z,61.65
2018-04-13T13:22:28.691Z,60.92
2018-04-13T13:24:56.127Z,62.53
2018-04-13T13:27:23.510Z,61.89
2018-04-13T13:29:50.900Z,61.00
2018-04-13T13:32:18.279Z,60.98
2018-04-13T13:34:45.670Z,60.15
2018-04-13T13:37:13.054Z,61.43
2018-04-13T13:39:40.439Z,61.96
2018-04-13T13:42:07.824Z,61.04
2018-04-13T13:44:35.207Z,60.95
2018-04-13T13:47:02.601Z,60.31
2018-04-13T13:49:30.027Z,61.63
2018-04-13T13:51:57.817Z,61.94
2018-04-13T13:54:25.200Z,60.95
2018-04-13T13:56:52.608Z,61.29
2018-04-13T13:59:20.001Z,61.13
2018-04-13T14:01:47.376Z,61.32
2018-04-13T14:04:14.899Z,61.74
2018-04-13T14:06:42.293Z,62.58
2018-04-13T14:09:09.678Z,62.48
2018-04-13T14:11:37.071Z,62.22
2018-04-13T14:14:04.462Z,62.94
2018-04-13T14:16:31.983Z,61.86
2018-04-13T14:18:59.369Z,62.48
2018-04-13T14:21:26.754Z,61.60
2018-04-13T14:23:54.148Z,60.77
2018-04-13T14:26:21.551Z,61.46
2018-04-13T14:28:48.936Z,61.87
2018-04-13T14:31:16.315Z,62.33
2018-04-13T14:33:43.702Z,62.44
2018-04-13T14:36:11.092Z,62.85
2018-04-13T14:38:38.491Z,61.16
2018-04-13T14:41:05.871Z,61.67
2018-04-13T14:43:33.264Z,62.18
2018-04-13T14:46:00.647Z,62.76
2018-04-13T14:48:28.035Z,63.69
2018-04-13T14:50:55.592Z,64.06
2018-04-13T14:53:22.915Z,64.33
2018-04-13T14:55:50.313Z,65.01
2018-04-13T14:58:17.691Z,65.84
2018-04-13T15:00:45.090Z,64.81
2018-04-13T15:03:12.471Z,65.79
2018-04-13T15:05:39.852Z,65.59
2018-04-13T15:08:07.235Z,64.73
2018-04-13T15:10:34.620Z,65.27
2018-04-13T15:13:02.011Z,66.16
2018-04-13T15:15:29.388Z,65.87
2018-04-13T15:17:56.786Z,65.55
2018-04-13T15:20:24.168Z,66.02
2018-04-13T15:22:51.555Z,66.03
2018-04-13T15:25:18.950Z,64.88
2018-04-13T15:27:46.326Z,65.18
2018-04-13T15:30:13.991Z,64.43
2018-04-13T15:32:41.484Z,64.00
2018-04-13T15:35:08.865Z,64.36
2018-04-13T15:37:36.260Z,64.51
2018-04-13T15:40:03.691Z,64.54
2018-04-13T15:42:31.116Z,64.90
2018-04-13T15:44:58.933Z,64.89
2018-04-13T15:47:26.379Z,63.71
2018-04-13T15:49:53.785Z,63.95
2018-04-13T15:52:21.159Z,63.60
2018-04-13T15:54:48.580Z,64.98
2018-04-13T15:57:16.011Z,64.93
2018-04-13T15:59:43.415Z,63.94
2018-04-13T16:02:10.826Z,65.44
2018-04-13T16:04:38.574Z,64.47
2018-04-13T16:07:05.983Z,64.97
2018-04-13T16:09:33.356Z,64.20
2018-04-13T16:12:00.739Z,64.13
2018-04-13T16:14:28.123Z,64.71
2018-04-13T16:16:55.515Z,66.14
2018-04-13T16:19:22.914Z,66.39
2018-04-13T16:21:50.307Z,66.25
2018-04-13T16:24:17.690Z,66.13
2018-04-13T16:26:45.089Z,65.72
2018-04-13T16:29:12.463Z,66.18
2018-04-13T16:31:39.851Z,66.22
2018-04-13T16:34:07.239Z,65.69
2018-04-13T16:36:34.627Z,66.04
2018-04-13T16:39:02.039Z,67.34
2018-04-13T16:41:29.405Z,68.23
2018-04-13T16:43:56.786Z,66.78
2018-04-13T16:46:24.175Z,66.85
2018-04-13T16:48:51.560Z,66.20
2018-04-13T16:51:18.949Z,66.63
2018-04-13T16:53:46.327Z,67.15
2018-04-13T16:56:13.747Z,68.02
2018-04-13T16:58:41.128Z,68.59
2018-04-13T17:01:08.510Z,69.29
2018-04-13T17:03:35.904Z,69.16
2018-04-13T17:06:03.283Z,69.05
2018-04-13T17:08:30.666Z,69.03
2018-04-13T17:10:58.065Z,69.32
2018-04-13T17:13:25.471Z,69.26
2018-04-13T17:15:52.855Z,69.02
2018-04-13T17:18:20.244Z,69.24
2018-04-13T17:20:47.627Z,69.34
2018-04-13T17:23:15.015Z,68.85
2018-04-13T17:25:42.402Z,68.96
2018-04-13T17:28:09.783Z,69.89
2018-04-13T17:30:37.178Z,70.03
2018-04-13T17:33:04.562Z,70.25
2018-04-13T17:35:31.943Z,70.46
2018-04-13T17:37:59.347Z,71.07
2018-04-13T17:40:26.837Z,70.43
2018-04-13T17:42:54.187Z,70.47
2018-04-13T17:45:21.574Z,70.83
2018-04-13T17:47:48.974Z,71.27
2018-04-13T17:50:16.355Z,71.36
2018-04-13T17:52:43.734Z,71.46
2018-04-13T17:55:12.007Z,71.63
2018-04-13T17:57:39.382Z,71.52
2018-04-13T18:00:06.762Z,71.70
2018-04-13T18:02:34.155Z,71.77
2018-04-13T18:05:01.547Z,71.60
2018-04-13T18:07:29.032Z,71.59
2018-04-13T18:09:56.493Z,71.49
2018-04-13T18:12:23.959Z,71.31
2018-04-13T18:14:51.338Z,71.99
2018-04-13T18:17:18.743Z,72.24
2018-04-13T18:19:46.126Z,72.67
2018-04-13T18:22:13.923Z,72.48
2018-04-13T18:24:41.306Z,73.36
2018-04-13T18:27:08.696Z,73.79
2018-04-13T18:29:36.084Z,74.06
2018-04-13T18:32:03.463Z,74.41
2018-04-13T18:34:30.859Z,75.08
2018-04-13T18:36:58.258Z,75.59
2018-04-13T18:39:25.669Z,76.03
2018-04-13T18:41:53.050Z,76.26
2018-04-13T18:44:20.436Z,76.49
2018-04-13T18:46:47.823Z,76.98
2018-04-13T18:49:15.222Z,77.26
2018-04-13T18:51:42.607Z,77.45
2018-04-13T18:54:10.002Z,77.37
2018-04-13T18:56:37.383Z,77.66
2018-04-13T18:59:04.775Z,78.11
2018-04-13T19:01:32.220Z,78.10
2018-04-13T19:03:59.615Z,78.77
2018-04-13T19:06:27.058Z,79.10
2018-04-13T19:08:54.446Z,79.38
2018-04-13T19:11:21.834Z,79.68
2018-04-13T19:13:49.227Z,79.83
2018-04-13T19:16:16.616Z,79.93
2018-04-13T19:18:44.015Z,79.97
2018-04-13T19:21:11.402Z,80.15
2018-04-13T19:23:38.786Z,80.49
2018-04-13T19:26:06.246Z,80.48
2018-04-13T19:28:33.562Z,80.68
2018-04-13T19:31:00.955Z,80.73
2018-04-13T19:33:28.360Z,80.44
2018-04-13T19:35:55.734Z,80.99
2018-04-13T19:38:23.115Z,80.53
2018-04-13T19:40:50.495Z,80.46
2018-04-13T19:43:17.928Z,80.47
2018-04-13T19:45:45.299Z,80.37
2018-04-13T19:48:12.688Z,80.53
2018-04-13T19:50:40.081Z,80.72
2018-04-13T19:53:07.462Z,80.81
2018-04-13T19:55:34.855Z,80.78
2018-04-13T19:58:02.281Z,81.09
2018-04-13T20:00:29.961Z,81.07
2018-04-13T20:02:57.344Z,81.02
2018-04-13T20:05:24.727Z,81.08
2018-04-13T20:07:52.119Z,81.08
2018-04-13T20:10:19.503Z,80.96
2018-04-13T20:12:46.897Z,81.42
2018-04-13T20:15:24.987Z,81.82
2018-04-13T20:17:52.378Z,82.27
2018-04-13T20:20:19.762Z,82.12
2018-04-13T20:22:47.139Z,80.95
2018-04-13T20:25:14.535Z,80.27
2018-04-13T20:27:41.919Z,80.84
2018-04-13T20:30:09.325Z,81.10
2018-04-13T20:32:36.702Z,81.39
2018-04-13T20:35:04.090Z,81.68
2018-04-13T20:37:31.478Z,81.58
2018-04-13T20:39:58.866Z,81.92
2018-04-13T20:42:26.567Z,81.37
2018-04-13T20:44:53.951Z,80.98
2018-04-13T20:47:21.335Z,81.34
2018-04-13T20:49:48.719Z,81.67
2018-04-13T20:52:16.099Z,82.20
2018-04-13T20:54:43.521Z,82.81
2018-04-13T20:57:10.890Z,83.47
2018-04-13T20:59:38.271Z,84.48
2018-04-13T21:02:05.662Z,84.70
2018-04-13T21:04:33.042Z,85.08
2018-04-13T21:07:00.431Z,85.54
2018-04-13T21:09:27.815Z,85.88
2018-04-13T21:11:55.194Z,85.94
2018-04-13T21:14:22.578Z,85.98
2018-04-13T21:16:49.963Z,86.00
2018-04-13T21:19:17.355Z,85.98
2018-04-13T21:21:44.735Z,86.07
2018-04-13T21:24:12.114Z,86.19
2018-04-13T21:26:39.509Z,86.01
2018-04-13T21:29:06.891Z,85.99
2018-04-13T21:31:34.692Z,86.33
2018-04-13T21:34:02.066Z,86.10
2018-04-13T21:36:29.455Z,86.51
2018-04-13T21:38:56.844Z,86.68
2018-04-13T21:41:24.234Z,86.84
2018-04-13T21:43:51.622Z,86.81
2018-04-13T21:46:19.028Z,87.08
2018-04-13T21:48:46.409Z,86.74
2018-04-13T21:51:13.795Z,86.40
2018-04-13T21:53:41.175Z,86.61
2018-04-13T21:56:08.567Z,86.53
2018-04-13T21:58:35.955Z,86.53
2018-04-13T22:01:03.359Z,86.41
2018-04-13T22:03:30.815Z,86.43
2018-04-13T22:05:58.206Z,86.26
2018-04-13T22:08:25.591Z,86.33
2018-04-13T22:10:52.977Z,86.25
2018-04-13T22:13:30.907Z,86.30
2018-04-13T22:15:58.283Z,86.48
2018-04-13T22:18:25.662Z,86.57
2018-04-13T22:23:25.879Z,86.22
2018-04-13T22:25:53.270Z,86.19
2018-04-13T22:28:20.658Z,86.49
2018-04-13T22:30:48.040Z,86.54
2018-04-13T22:33:15.432Z,86.67
2018-04-13T22:35:42.811Z,86.91
2018-04-13T22:38:10.210Z,87.23
2018-04-13T22:40:37.595Z,87.58
2018-04-13T22:43:04.978Z,87.55
2018-04-13T22:45:32.478Z,87.56
2018-04-13T22:47:59.866Z,87.61
2018-04-13T22:50:27.263Z,87.54
2018-04-13T22:52:54.650Z,87.69
2018-04-13T22:55:22.039Z,87.78
2018-04-13T22:57:49.461Z,87.72
2018-04-13T23:00:16.830Z,87.83
2018-04-13T23:02:44.241Z,87.87
2018-04-13T23:05:11.622Z,88.10
2018-04-13T23:07:39.011Z,88.10
2018-04-13T23:10:06.504Z,88.33
2018-04-13T23:12:33.891Z,88.62
2018-04-13T23:15:01.300Z,88.80
2018-04-13T23:17:28.690Z,88.91
2018-04-13T23:19:56.083Z,88.77
2018-04-13T23:22:35.122Z,88.94
2018-04-13T23:25:02.514Z,89.17
2018-04-13T23:27:29.907Z,89.28
2018-04-13T23:29:57.297Z,89.33
2018-04-13T23:32:24.683Z,89.78
2018-04-13T23:34:52.070Z,89.88
2018-04-13T23:37:19.462Z,89.60
2018-04-13T23:39:46.862Z,89.79
2018-04-13T23:42:14.262Z,89.90
2018-04-13T23:44:41.639Z,90.42
2018-04-13T23:47:09.033Z,90.75
2018-04-13T23:49:36.424Z,90.71
2018-04-13T23:52:03.818Z,90.41
2018-04-13T23:54:31.206Z,90.90
2018-04-13T23:56:58.595Z,91.12
2018-04-13T23:59:25.989Z,91.22
